Latest Weather Observations for Ballarat

IDV60801

Issued at 11:02 pm EST Monday 6 July 2015 (issued every 30 minutes, with the page automatically refreshed every 10 minutes)

About weather observations | Map of weather stations | Latest weather observations for VIC | Other Formats
Station Details ID: 089002 Name: BALLARAT AERODROME Lat: -37.51 Lon: 143.79 Height: 435.2 m
Data from the previous 72 hours. | See also: Recent months at Ballarat
Date/Time
EST
Temp
°C
App
Temp
°C
Dew
Point
Rel
Hum
%
Delta-T
°C
Wind Press
QNH
hPa
Press
MSL
hPa
Rain
since 9 am
mm
Dir
 
Spd
km/h
Gust
km/h
Spd
kts
Gust
kts
06/11:00pm 5.6 1.4 5.5 99 0.0 N 17 22 9 12 1017.9 1018.8 1.0
06/10:30pm 5.8 1.6 5.7 99 0.0 N 17 22 9 12 1017.9 1018.8 1.0
06/10:00pm 5.6 1.8 5.6 100 0.0 NNE 15 19 8 10 1017.8 1018.7 1.0
06/09:30pm 5.7 1.5 5.7 100 0.0 NNE 17 24 9 13 1017.5 1018.4 1.0
06/09:00pm 5.7 0.9 5.7 100 0.0 NNE 20 26 11 14 1017.3 1018.2 1.0
06/08:30pm 5.6 0.4 5.6 100 0.0 NNE 22 28 12 15 1017.2 1018.1 1.0
06/08:29pm 5.6 0.4 5.6 100 0.0 NNE 22 28 12 15 1017.2 1018.1 1.0
06/08:00pm 5.6 0.4 5.6 100 0.0 NNE 22 28 12 15 1016.9 1017.7 1.0
06/07:44pm 5.6 1.0 5.5 99 0.0 NNE 19 24 10 13 1016.9 1017.7 1.0
06/07:30pm 5.6 0.8 5.5 99 0.0 NNE 20 26 11 14 1016.8 1017.6 1.0
06/07:00pm 5.8 0.6 5.7 99 0.0 N 22 28 12 15 1016.6 1017.4 1.0
06/06:30pm 5.8 1.0 5.7 99 0.0 N 20 28 11 15 1016.4 1017.2 1.0
06/06:00pm 5.9 1.1 5.8 99 0.0 N 20 28 11 15 1016.2 1017.0 1.0
06/05:30pm 5.9 1.1 5.8 99 0.0 N 20 26 11 14 1015.8 1016.6 1.0
06/05:00pm 5.9 0.4 5.8 99 0.0 NNE 24 32 13 17 1015.3 1016.2 1.0
06/04:30pm 5.6 0.4 5.5 99 0.0 NNE 22 28 12 15 1015.1 1016.0 1.0
06/04:00pm 5.7 -0.2 5.6 99 0.0 NNE 26 32 14 17 1015.1 1016.0 1.0
06/03:30pm 6.1 0.6 6.0 99 0.0 NNE 24 30 13 16 1014.7 1015.5 1.0
06/03:00pm 5.9 -0.4 5.8 99 0.0 N 28 33 15 18 1014.6 1015.4 1.0
06/02:30pm 6.2 0.7 6.1 99 0.0 NNE 24 32 13 17 1014.5 1015.3 1.0
06/02:09pm 6.1 0.6 6.0 99 0.0 NNE 24 32 13 17 1014.6 1015.4 1.0
06/02:00pm 6.2 1.1 6.1 99 0.0 N 22 28 12 15 1014.7 1015.5 1.0
06/01:30pm 6.3 1.8 6.0 98 0.1 NNE 19 26 10 14 1014.6 1015.4 1.0
06/01:00pm 5.6 0.0 5.3 98 0.1 NNE 24 32 13 17 1014.7 1015.5 0.8
06/12:30pm 5.6 -0.4 5.3 98 0.1 N 26 32 14 17 1015.0 1015.8 0.4
06/12:00pm 5.7 -0.3 5.4 98 0.1 N 26 33 14 18 1015.2 1016.1 0.2
06/11:30am 6.3 -0.3 4.1 86 1.0 N 28 35 15 19 1015.4 1016.3 0.0
06/11:00am 6.5 -0.6 3.5 81 1.3 N 30 37 16 20 1015.5 1016.4 0.0
06/10:30am 6.7 -0.4 3.7 81 1.3 N 30 37 16 20 1015.7 1016.5 0.0
06/10:00am 6.2 -1.0 3.2 81 1.3 N 30 41 16 22 1015.7 1016.5 0.0
06/09:30am 5.9 -1.3 2.9 81 1.3 N 30 41 16 22 1015.3 1016.2 0.0
06/09:00am 5.3 -2.0 2.7 83 1.1 N 30 35 16 19 1015.3 1016.2 0.0
06/08:30am 5.0 -1.5 2.5 84 1.0 N 26 35 14 19 1015.3 1016.2 0.0
06/08:00am 4.8 -1.3 2.7 86 0.9 NNE 24 30 13 16 1015.4 1016.3 0.0
06/07:30am 4.9 -1.2 2.6 85 1.0 NNE 24 30 13 16 1015.3 1016.2 0.0
06/07:00am 5.0 -0.7 2.7 85 1.0 NNE 22 30 12 16 1015.4 1016.3 0.0
06/06:30am 5.0 -0.3 2.9 86 0.9 NNE 20 28 11 15 1015.3 1016.2 0.0
06/06:00am 5.1 -1.3 3.0 86 0.9 NNE 26 32 14 17 1015.3 1016.2 0.0
06/05:30am 5.0 -0.7 3.0 87 0.8 N 22 30 12 16 1015.7 1016.5 0.0
06/05:00am 5.0 -1.1 2.7 85 1.0 N 24 30 13 16 1015.7 1016.5 0.0
06/04:30am 5.0 -1.1 2.7 85 1.0 N 24 32 13 17 1015.8 1016.6 0.0
06/04:00am 5.1 -0.7 2.3 82 1.2 N 22 32 12 17 1015.8 1016.6 0.0
06/03:30am 5.1 -2.2 2.5 83 1.1 NNE 30 35 16 19 1015.8 1016.6 0.0
06/03:00am 5.0 -0.8 2.4 83 1.1 NNE 22 28 12 15 1016.3 1017.1 0.0
06/02:30am 5.3 -1.3 2.3 81 1.2 NNE 26 33 14 18 1016.5 1017.3 0.0
06/02:00am 5.5 -1.1 2.3 80 1.3 NNE 26 37 14 20 1016.6 1017.4 0.0
06/01:30am 5.6 -0.9 2.4 80 1.3 NNE 26 39 14 21 1016.7 1017.5 0.0
06/01:00am 5.7 -1.6 2.4 79 1.4 NNE 30 35 16 19 1016.8 1017.6 0.0
06/12:30am 5.7 -1.2 2.4 79 1.4 NNE 28 35 15 19 1017.0 1017.8 0.0
06/12:00am 5.9 -1.1 2.2 77 1.5 NNE 28 35 15 19 1017.3 1018.2 0.0
 
Date/Time
EST
Temp
°C
App
Temp
°C
Dew
Point
Rel
Hum
%
Delta-T
°C
Wind Press
QNH
hPa
Press
MSL
hPa
Rain
since 9 am
mm
Dir
 
Spd
km/h
Gust
km/h
Spd
kts
Gust
kts
05/11:30pm 6.2 -0.8 2.1 75 1.7 NNE 28 39 15 21 1017.3 1018.2 0.0
05/11:00pm 6.3 -0.7 2.2 75 1.7 NNE 28 35 15 19 1017.2 1018.1 0.0
05/10:30pm 6.6 0.1 2.5 75 1.7 NNE 26 35 14 19 1017.3 1018.2 0.0
05/10:00pm 7.0 1.3 2.7 74 1.8 NNE 22 30 12 16 1017.5 1018.4 0.0
05/09:30pm 7.2 1.1 2.5 72 2.0 NNE 24 32 13 17 1017.5 1018.4 0.0
05/09:00pm 7.3 1.6 2.6 72 2.0 NNE 22 30 12 16 1017.6 1018.5 0.0
05/08:30pm 7.3 1.6 3.0 74 1.9 NNE 22 28 12 15 1017.7 1018.6 0.0
05/08:00pm 7.3 1.6 3.0 74 1.9 N 22 28 12 15 1017.8 1018.7 0.0
05/07:30pm 7.4 1.7 3.1 74 1.9 N 22 26 12 14 1017.8 1018.7 0.0
05/07:00pm 7.5 2.2 3.2 74 1.9 N 20 28 11 15 1017.7 1018.6 0.0
05/06:30pm 7.5 2.3 3.4 75 1.8 N 20 24 11 13 1017.7 1018.6 0.0
05/06:00pm 7.7 3.1 3.6 75 1.8 N 17 22 9 12 1017.8 1018.7 0.0
05/05:30pm 7.6 2.4 3.3 74 1.9 N 20 26 11 14 1017.5 1018.4 0.0
05/05:00pm 8.6 3.0 3.4 70 2.3 N 22 30 12 16 1017.3 1018.2 0.0
05/04:30pm 9.5 3.2 3.7 67 2.6 N 26 32 14 17 1017.4 1018.3 0.0
05/04:00pm 10.2 3.5 3.7 64 2.9 N 28 35 15 19 1017.3 1018.2 0.0
05/03:30pm 10.7 4.1 4.0 63 3.1 N 28 35 15 19 1017.5 1018.4 0.0
05/03:00pm 10.9 4.3 4.1 63 3.1 N 28 35 15 19 1017.6 1018.5 0.0
05/02:30pm 11.5 5.0 4.7 63 3.2 N 28 35 15 19 1017.8 1018.7 0.0
05/02:00pm 10.5 3.5 4.0 64 2.9 N 30 37 16 20 1018.0 1018.9 0.0
05/01:30pm 10.5 3.5 4.2 65 2.9 N 30 37 16 20 1018.4 1019.2 0.0
05/01:00pm 10.4 3.8 4.1 65 2.9 N 28 35 15 19 1018.8 1019.6 0.0
05/12:30pm 9.7 3.0 3.7 66 2.7 N 28 35 15 19 1019.0 1019.9 0.0
05/12:00pm 9.2 3.3 3.8 69 2.4 N 24 32 13 17 1019.4 1020.3 0.0
05/11:30am 8.4 2.4 3.5 71 2.2 N 24 32 13 17 1019.9 1020.8 0.0
05/11:00am 7.6 0.8 3.1 73 1.9 N 28 35 15 19 1020.2 1021.1 0.0
05/10:30am 7.5 0.8 3.4 75 1.8 N 28 39 15 21 1020.2 1021.1 0.0
05/10:00am 6.5 0.2 3.5 81 1.3 NNE 26 33 14 18 1020.3 1021.2 0.0
05/09:30am 6.2 0.6 3.4 82 1.2 NNE 22 28 12 15 1020.4 1021.3 0.0
05/09:00am 5.8 -0.3 3.0 82 1.2 NNE 24 33 13 18 1020.2 1021.1 0.0
05/08:30am 4.8 -1.3 2.8 87 0.8 N 24 30 13 16 1020.2 1021.1 0.0
05/08:00am 4.5 -2.0 2.8 89 0.7 N 26 32 14 17 1020.1 1021.0 0.0
05/07:30am 4.4 -1.7 2.9 90 0.6 N 24 30 13 16 1020.1 1021.0 0.0
05/07:00am 4.3 -1.4 2.8 90 0.6 NNE 22 33 12 18 1020.1 1021.0 0.0
05/06:30am 4.5 -1.2 3.0 90 0.6 NNE 22 28 12 15 1019.9 1020.8 0.0
05/06:00am 4.5 -1.1 3.2 91 0.5 N 22 28 12 15 1019.9 1020.8 0.0
05/05:30am 4.5 -1.1 3.2 91 0.5 N 22 26 12 14 1019.9 1020.8 0.0
05/05:00am 4.8 0.1 3.1 89 0.7 N 17 22 9 12 1019.9 1020.8 0.0
05/04:30am 5.1 -1.3 3.3 88 0.8 NNE 26 35 14 19 1019.5 1020.4 0.0
05/04:00am 5.1 -0.9 3.4 89 0.7 N 24 30 13 16 1019.7 1020.6 0.0
05/03:30am 5.5 -0.5 3.5 87 0.9 N 24 30 13 16 1020.1 1021.0 0.0
05/03:00am 6.1 0.6 3.9 86 1.0 N 22 28 12 15 1020.4 1021.3 0.0
05/02:30am 6.1 1.0 4.3 88 0.8 N 20 28 11 15 1020.4 1021.3 0.0
05/02:00am 6.1 0.7 4.3 88 0.8 NNE 22 28 12 15 1020.6 1021.4 0.0
05/01:30am 6.1 1.1 4.4 89 0.8 NNE 20 24 11 13 1020.9 1021.7 0.0
05/01:00am 6.4 1.3 4.2 86 1.0 NNE 20 26 11 14 1021.0 1021.9 0.0
05/12:30am 6.7 1.8 4.2 84 1.1 NNE 19 22 10 12 1021.1 1022.0 0.0
05/12:00am 6.8 2.3 4.1 83 1.2 NNE 17 22 9 12 1021.2 1022.1 0.0
 
Date/Time
EST
Temp
°C
App
Temp
°C
Dew
Point
Rel
Hum
%
Delta-T
°C
Wind Press
QNH
hPa
Press
MSL
hPa
Rain
since 9 am
mm
Dir
 
Spd
km/h
Gust
km/h
Spd
kts
Gust
kts
04/11:30pm 7.0 2.1 4.3 83 1.2 NNE 19 24 10 13 1021.2 1022.1 0.0
04/11:00pm 7.1 2.1 4.6 84 1.1 NNE 20 24 11 13 1021.3 1022.2 0.0
04/10:30pm 7.2 2.4 4.7 84 1.1 NNE 19 22 10 12 1021.3 1022.2 0.0
04/10:00pm 7.4 2.6 4.7 83 1.2 N 19 22 10 12 1021.4 1022.3 0.0
04/09:30pm 7.3 2.9 4.8 84 1.1 N 17 20 9 11 1021.6 1022.5 0.0
04/09:00pm 7.2 2.8 4.7 84 1.1 N 17 20 9 11 1021.6 1022.5 0.0
04/08:30pm 7.5 3.1 4.8 83 1.2 N 17 19 9 10 1021.7 1022.6 0.0
04/08:00pm 7.6 3.6 4.7 82 1.3 N 15 19 8 10 1021.8 1022.7 0.0
04/07:30pm 7.6 3.6 4.9 83 1.2 N 15 20 8 11 1021.7 1022.6 0.0
04/07:00pm 7.6 3.6 4.9 83 1.2 N 15 19 8 10 1021.7 1022.6 0.0
04/06:30pm 7.7 3.7 5.0 83 1.2 N 15 19 8 10 1021.6 1022.5 0.0
04/06:00pm 7.7 3.8 5.3 85 1.1 N 15 20 8 11 1021.4 1022.3 0.0
04/05:30pm 7.7 3.4 5.3 85 1.1 N 17 20 9 11 1021.3 1022.2 0.0
04/05:00pm 7.6 4.2 5.7 88 0.9 NNE 13 17 7 9 1021.3 1022.2 0.0
04/04:30pm 7.4 3.3 6.0 91 0.6 NNE 17 20 9 11 1021.4 1022.3 0.0
04/04:00pm 7.4 3.1 5.4 87 0.9 N 17 20 9 11 1021.5 1022.4 0.0
04/03:30pm 7.8 3.3 4.2 78 1.6 N 17 22 9 12 1021.4 1022.3 0.0
04/03:00pm 7.6 2.0 3.6 76 1.7 N 22 26 12 14 1021.3 1022.2 0.0
04/02:30pm 7.4 2.2 3.6 77 1.7 N 20 28 11 15 1021.3 1022.2 0.0
04/02:00pm 7.2 1.2 3.6 78 1.6 N 24 30 13 16 1021.5 1022.4 0.0
04/01:30pm 7.1 1.1 3.5 78 1.6 N 24 30 13 16 1021.7 1022.6 0.0
04/01:00pm 6.5 0.8 3.1 79 1.5 N 22 30 12 16 1021.9 1022.8 0.0
04/12:30pm 6.5 0.9 3.3 80 1.4 N 22 26 12 14 1022.2 1023.1 0.0
04/12:00pm 6.1 0.8 3.1 81 1.3 N 20 28 11 15 1022.6 1023.5 0.0
04/11:30am 6.0 0.7 2.8 80 1.4 N 20 26 11 14 1023.1 1024.0 0.0
04/11:00am 5.8 0.4 2.4 79 1.4 N 20 28 11 15 1023.3 1024.2 0.0
04/10:30am 5.3 -0.2 2.1 80 1.3 NNE 20 26 11 14 1023.4 1024.3 0.0
04/10:00am 5.3 -0.6 2.0 79 1.4 N 22 26 12 14 1023.2 1024.1 0.0
04/09:30am 4.9 -0.4 1.7 80 1.3 N 19 24 10 13 1023.2 1024.1 0.0
04/09:00am 4.9 -1.0 1.7 80 1.3 N 22 28 12 15 1022.8 1023.8 0.0
04/08:30am 4.6 -1.3 1.5 80 1.3 N 22 28 12 15 1022.8 1023.8 0.0
04/08:00am 4.3 -1.6 1.5 82 1.1 N 22 26 12 14 1022.7 1023.6 0.0
04/07:30am 4.4 -1.0 1.4 81 1.2 N 19 24 10 13 1022.6 1023.5 0.0
04/07:00am 4.5 -1.1 1.2 79 1.3 N 20 26 11 14 1022.5 1023.4 0.0
04/06:30am 4.2 -0.8 1.4 82 1.1 N 17 20 9 11 1022.4 1023.3 0.0
04/06:00am 4.0 -1.5 1.7 85 0.9 N 20 26 11 14 1022.3 1023.2 0.0
04/05:30am 4.1 -1.5 1.3 82 1.1 N 20 24 11 13 1022.3 1023.2 0.0
04/05:00am 4.3 -1.1 1.0 79 1.3 N 19 26 10 14 1022.2 1023.1 0.0
04/04:30am 4.3 -1.3 1.2 80 1.2 N 20 24 11 13 1022.1 1023.0 0.0
04/04:00am 4.3 -1.3 1.0 79 1.3 N 20 24 11 13 1022.2 1023.1 0.0
04/03:30am 4.2 -0.8 1.2 81 1.2 NNE 17 20 9 11 1022.2 1023.1 0.0
04/03:00am 4.4 -0.2 1.3 80 1.2 N 15 19 8 10 1022.6 1023.5 0.0
04/02:30am 4.5 -0.1 1.4 80 1.3 N 15 19 8 10 1023.0 1023.9 0.0
04/02:00am 4.5 0.3 1.4 80 1.2 NNE 13 15 7 8 1023.1 1024.0 0.0
04/01:30am 4.5 -0.1 1.4 80 1.3 N 15 17 8 9 1023.2 1024.1 0.0
04/01:00am 4.5 0.2 1.2 79 1.3 N 13 17 7 9 1023.3 1024.2 0.0
04/12:30am 4.4 -0.2 1.3 80 1.2 NNE 15 19 8 10 1023.6 1024.5 0.0
04/12:00am 4.4 -0.2 1.3 80 1.2 N 15 19 8 10 1024.0 1024.9 0.0
 
Date/Time
EST
Temp
°C
App
Temp
°C
Dew
Point
Rel
Hum
%
Delta-T
°C
Wind Press
QNH
hPa
Press
MSL
hPa
Rain
since 9 am
mm
Dir
 
Spd
km/h
Gust
km/h
Spd
kts
Gust
kts
03/11:30pm 4.4 -0.2 1.4 81 1.2 N 15 17 8 9 1024.1 1025.0 0.0

Other Formats:

Comma delimited format used in spreadsheet applications
http://www.bom.gov.au/fwo/IDV60801/IDV60801.94852.axf

JavaScript Object Notation format (JSON) in row-major order
http://www.bom.gov.au/fwo/IDV60801/IDV60801.94852.json